Time;durP1;ratioP1;P1;durP2;ratioP2;P2;SDS_P1;SDS_P2;PMS_P1;PMS_P2;Temp;Humidity;BMP_temperature;BMP_pressure;BME280_temperature;BME280_humidity;BME280_pressure;Samples;Min_cycle;Max_cycle;Signal;HPM_P1;HPM_P2
2023/03/31 00:02:12;;;;;;;2.37;2.27;;;;;;;10.90;79.96;100049.72;5114441;28;20541;-70
2023/03/31 00:04:44;;;;;;;2.27;2.17;;;;;;;10.85;80.09;100047.44;5113864;28;20242;-70
2023/03/31 00:07:13;;;;;;;2.27;2.17;;;;;;;10.84;80.58;100043.03;5114167;28;20554;-70
2023/03/31 00:09:44;;;;;;;2.07;1.97;;;;;;;10.79;80.61;100041.75;5114158;28;20548;-70
2023/03/31 00:12:13;;;;;;;2.10;2.00;;;;;;;10.78;80.52;100034.69;5114394;28;20265;-70
2023/03/31 00:14:40;;;;;;;2.40;2.03;;;;;;;10.73;80.64;100036.91;5113722;28;20201;-70
2023/03/31 00:17:07;;;;;;;6.43;1.87;;;;;;;10.65;80.96;100029.50;5114029;28;20177;-70
2023/03/31 00:19:33;;;;;;;1.53;1.43;;;;;;;10.69;80.49;100014.88;5113736;28;20251;-70
2023/03/31 00:22:04;;;;;;;2.73;1.90;;;;;;;10.70;80.49;100015.72;5113691;28;20181;-70
2023/03/31 00:24:31;;;;;;;3.07;1.80;;;;;;;10.70;80.42;100008.53;5113892;28;20624;-70
2023/03/31 00:26:59;;;;;;;2.07;1.87;;;;;;;10.68;80.31;100015.00;5113637;28;20315;-70
2023/03/31 00:29:25;;;;;;;2.83;2.23;;;;;;;10.69;81.14;100003.31;5114162;28;20192;-70
2023/03/31 00:31:52;;;;;;;9.27;2.10;;;;;;;10.66;81.08;99988.38;5113565;28;20204;-70
2023/03/31 00:34:19;;;;;;;1.97;1.97;;;;;;;10.71;80.23;99993.34;5113839;28;20219;-70
2023/03/31 00:36:48;;;;;;;4.10;1.93;;;;;;;10.68;80.19;99985.53;5095358;28;20185;-70
2023/03/31 00:39:17;;;;;;;1.83;1.83;;;;;;;10.72;80.18;99984.31;5113527;28;20195;-70
2023/03/31 00:41:44;;;;;;;2.83;2.30;;;;;;;10.72;79.73;99987.84;5113489;28;20264;-70
2023/03/31 00:44:26;;;;;;;2.90;2.80;;;;;;;10.68;80.10;99972.16;5095202;28;20212;-70
2023/03/31 00:46:57;;;;;;;2.87;1.80;;;;;;;10.67;80.37;99970.47;5113950;28;20202;-70
2023/03/31 00:49:31;;;;;;;2.80;2.60;;;;;;;10.65;80.32;99967.91;5113482;28;20539;-70
2023/03/31 00:52:06;;;;;;;3.97;2.20;;;;;;;10.61;80.92;99961.13;5114011;28;20185;-70
2023/03/31 00:54:35;;;;;;;2.20;2.10;;;;;;;10.76;80.17;99954.47;5113345;28;20575;-70
2023/03/31 00:57:05;;;;;;;2.47;2.13;;;;;;;10.75;80.32;99947.41;5094866;28;20238;-70
2023/03/31 00:59:37;;;;;;;2.93;1.53;;;;;;;10.78;80.43;99946.31;5114970;28;20539;-70
2023/03/31 01:02:03;;;;;;;2.00;1.90;;;;;;;10.73;81.03;99941.34;5117581;28;20548;-70
2023/03/31 01:04:34;;;;;;;2.10;2.00;;;;;;;10.69;80.82;99933.69;5117712;28;20201;-70
2023/03/31 01:07:15;;;;;;;2.07;1.97;;;;;;;10.68;80.99;99923.94;5117775;28;20165;-70
2023/03/31 01:09:46;;;;;;;2.87;2.40;;;;;;;10.70;81.40;99930.03;5117461;28;20249;-70
2023/03/31 01:12:15;;;;;;;7.73;3.17;;;;;;;10.66;81.12;99920.56;5117397;28;20170;-70
2023/03/31 01:14:42;;;;;;;1.87;1.87;;;;;;;10.62;81.22;99909.25;5116955;28;20304;-70
2023/03/31 01:17:09;;;;;;;2.97;2.70;;;;;;;10.63;81.42;99917.19;5099095;28;20215;-70
2023/03/31 01:19:51;;;;;;;2.80;2.67;;;;;;;10.63;81.05;99910.94;5117235;28;20269;-70
2023/03/31 01:22:44;;;;;;;2.40;2.20;;;;;;;10.57;81.96;99900.78;5117214;28;20181;-70
2023/03/31 01:25:54;;;;;;;3.90;2.10;;;;;;;10.53;82.49;99905.53;5117545;28;20717;-70
2023/03/31 01:28:35;;;;;;;4.70;2.63;;;;;;;10.49;83.64;99904.13;5098565;28;20192;-71
2023/03/31 01:31:12;;;;;;;2.53;2.33;;;;;;;10.40;84.67;99908.41;5098497;28;20189;-71
2023/03/31 01:34:00;;;;;;;2.13;2.03;;;;;;;10.37;85.87;99894.44;5132689;27;20232;-71
2023/03/31 01:37:05;;;;;;;2.87;2.30;;;;;;;10.27;86.40;99899.69;5117011;28;20165;-72
2023/03/31 01:39:45;;;;;;;4.53;2.57;;;;;;;10.29;86.60;99888.88;5098309;28;20199;-72
2023/03/31 01:42:27;;;;;;;8.07;3.13;;;;;;;10.33;86.98;99885.81;5117094;28;20181;-72
2023/03/31 01:45:11;;;;;;;2.80;2.53;;;;;;;10.31;87.24;99885.09;5097993;28;20577;-71
2023/03/31 01:47:45;;;;;;;6.40;2.90;;;;;;;10.32;87.66;99880.56;5116986;28;20201;-72
2023/03/31 01:50:27;;;;;;;3.30;2.40;;;;;;;10.28;88.39;99863.94;5116929;28;20189;-72
2023/03/31 01:53:15;;;;;;;2.67;2.60;;;;;;;10.27;88.27;99856.88;5116756;28;20205;-71
2023/03/31 01:55:51;;;;;;;4.43;3.07;;;;;;;10.22;88.68;99843.00;5116395;28;20180;-71
2023/03/31 01:58:23;;;;;;;3.30;3.00;;;;;;;10.23;88.47;99842.91;5098139;28;20267;-71
2023/03/31 02:01:07;;;;;;;5.20;2.30;;;;;;;10.21;88.79;99838.66;5116239;28;20183;-72
2023/03/31 02:03:43;;;;;;;3.90;2.47;;;;;;;10.18;88.17;99834.41;5116663;28;20205;-72
2023/03/31 02:06:20;;;;;;;4.60;2.80;;;;;;;10.20;88.62;99828.94;5097781;28;20205;-72
2023/03/31 02:08:53;;;;;;;3.10;3.10;;;;;;;10.15;88.50;99815.94;5116358;28;20187;-71
2023/03/31 02:11:21;;;;;;;2.93;2.23;;;;;;;10.19;88.79;99817.38;5097776;28;20268;-71
2023/03/31 02:13:51;;;;;;;6.37;3.20;;;;;;;10.15;88.50;99807.06;5097569;28;20307;-71
2023/03/31 02:16:23;;;;;;;7.47;2.93;;;;;;;10.04;89.46;99804.47;5116480;28;20188;-71
2023/03/31 02:19:00;;;;;;;4.77;2.73;;;;;;;10.06;89.54;99798.00;5115824;28;20177;-71
2023/03/31 02:21:32;;;;;;;3.00;2.80;;;;;;;10.04;89.35;99791.09;5116088;28;20162;-71
2023/03/31 02:24:03;;;;;;;4.80;2.93;;;;;;;10.03;89.55;99787.53;5115655;28;20201;-71
2023/03/31 02:26:36;;;;;;;2.73;2.53;;;;;;;9.95;89.97;99780.16;5115668;28;20197;-71
2023/03/31 02:29:03;;;;;;;3.17;2.80;;;;;;;9.95;90.01;99772.16;5097363;28;20182;-71
2023/03/31 02:31:40;;;;;;;7.13;2.77;;;;;;;9.98;89.84;99771.03;5097327;28;20571;-71
2023/03/31 02:34:06;;;;;;;2.50;2.33;;;;;;;9.98;90.13;99761.22;5097465;28;20219;-71
2023/03/31 02:36:34;;;;;;;7.03;2.93;;;;;;;9.98;90.11;99749.63;5097180;28;20285;-71
2023/03/31 02:39:15;;;;;;;3.93;3.23;;;;;;;9.97;90.14;99755.97;5115421;28;20185;-71
2023/03/31 02:41:42;;;;;;;3.13;2.93;;;;;;;9.93;90.66;99738.47;5097112;28;20734;-71
2023/03/31 02:44:09;;;;;;;3.80;2.53;;;;;;;10.01;90.57;99741.38;5097476;28;20227;-71
2023/03/31 02:46:36;;;;;;;6.60;4.03;;;;;;;10.04;90.32;99722.38;5096963;28;20299;-71
2023/03/31 02:49:07;;;;;;;3.33;3.10;;;;;;;10.08;90.23;99723.81;5115825;28;20187;-71
2023/03/31 02:51:48;;;;;;;4.10;3.53;;;;;;;10.06;90.37;99716.91;5096964;28;20217;-71
2023/03/31 02:54:42;;;;;;;15.53;4.10;;;;;;;10.04;90.19;99709.00;5096788;28;20650;-71
2023/03/31 02:57:53;;;;;;;4.30;3.23;;;;;;;9.98;90.91;99699.69;5097677;28;20242;-71
2023/03/31 03:00:40;;;;;;;6.23;4.17;;;;;;;10.00;90.86;99687.00;5096824;28;20280;-71
2023/03/31 03:03:13;;;;;;;6.40;4.47;;;;;;;10.06;90.44;99682.13;5096716;28;20209;-71
2023/03/31 03:05:57;;;;;;;5.47;5.07;;;;;;;10.04;90.88;99679.56;5130679;27;20754;-71
2023/03/31 03:09:02;;;;;;;8.03;4.17;;;;;;;10.08;89.98;99664.09;5096841;28;20593;-71
2023/03/31 03:11:57;;;;;;;5.37;5.03;;;;;;;10.10;90.93;99652.28;5097382;28;20181;-71
2023/03/31 03:14:38;;;;;;;18.00;3.10;;;;;;;10.12;90.05;99655.66;5114762;28;20201;-71
2023/03/31 03:17:10;;;;;;;5.40;4.90;;;;;;;10.11;90.54;99653.16;5115261;28;20165;-71
2023/03/31 03:19:37;;;;;;;4.83;4.07;;;;;;;10.10;90.42;99646.91;5114665;28;20173;-71
2023/03/31 03:22:03;;;;;;;5.23;3.70;;;;;;;10.11;90.68;99645.97;5114465;28;20560;-71
2023/03/31 03:24:33;;;;;;;6.13;3.87;;;;;;;10.10;90.68;99630.88;5114428;28;20213;-71
2023/03/31 03:27:00;;;;;;;8.67;4.47;;;;;;;10.13;90.52;99622.59;5114595;28;20209;-73
2023/03/31 03:29:26;;;;;;;9.23;3.53;;;;;;;10.11;90.89;99608.50;5114445;28;20189;-72
2023/03/31 03:31:53;;;;;;;5.20;4.70;;;;;;;10.10;90.60;99606.78;5114360;28;20192;-72
2023/03/31 03:34:19;;;;;;;6.93;4.60;;;;;;;10.09;90.86;99602.44;5114290;28;20223;-71
2023/03/31 03:36:46;;;;;;;10.47;4.53;;;;;;;10.11;90.81;99607.66;5114590;28;20648;-71
2023/03/31 03:39:12;;;;;;;6.33;5.13;;;;;;;10.15;90.55;99601.91;5114250;28;20280;-71
2023/03/31 03:41:39;;;;;;;7.60;3.00;;;;;;;10.04;91.02;99606.50;5114324;28;20189;-71
2023/03/31 03:44:05;;;;;;;3.97;3.30;;;;;;;10.05;90.50;99584.13;5114149;28;20229;-71
2023/03/31 03:46:31;;;;;;;9.23;3.73;;;;;;;10.04;91.00;99567.22;5114351;28;20216;-71
2023/03/31 03:48:58;;;;;;;7.10;2.90;;;;;;;9.96;91.13;99575.94;5114422;28;20234;-71
2023/03/31 03:51:24;;;;;;;11.40;4.23;;;;;;;9.94;91.61;99567.19;5114344;28;20575;-71
2023/03/31 03:53:50;;;;;;;10.33;3.80;;;;;;;9.97;91.33;99564.22;5113990;28;20205;-71
2023/03/31 03:56:17;;;;;;;3.50;3.40;;;;;;;9.94;91.37;99553.81;5114501;28;20252;-73
2023/03/31 03:58:43;;;;;;;4.43;3.30;;;;;;;9.95;91.31;99546.63;5114227;28;20181;-72
2023/03/31 04:01:10;;;;;;;3.10;2.83;;;;;;;9.93;91.38;99544.09;5113931;28;20268;-72
2023/03/31 04:03:36;;;;;;;5.50;3.43;;;;;;;9.93;91.62;99541.41;5114126;28;20207;-71
2023/03/31 04:06:02;;;;;;;6.57;3.40;;;;;;;9.96;91.50;99542.97;5113818;28;20211;-71
2023/03/31 04:08:29;;;;;;;9.30;4.07;;;;;;;10.00;91.35;99529.19;5114107;28;20208;-71
2023/03/31 04:10:56;;;;;;;4.47;3.10;;;;;;;9.99;91.36;99526.66;5114060;28;20669;-71
2023/03/31 04:13:22;;;;;;;4.97;3.80;;;;;;;9.95;91.27;99522.56;5113748;28;20235;-71
2023/03/31 04:15:49;;;;;;;13.63;3.77;;;;;;;9.98;91.68;99519.59;5114085;28;20541;-71
2023/03/31 04:18:24;;;;;;;8.97;4.70;;;;;;;9.99;91.20;99514.13;5114023;28;20651;-72
2023/03/31 04:21:04;;;;;;;11.70;4.17;;;;;;;9.96;91.42;99494.81;5114027;28;20177;-72
2023/03/31 04:23:32;;;;;;;8.47;4.60;;;;;;;9.92;91.50;99475.53;5114051;28;20209;-71
2023/03/31 04:25:59;;;;;;;7.60;4.10;;;;;;;9.91;91.61;99484.56;5113931;28;20205;-71
2023/03/31 04:28:25;;;;;;;6.60;4.17;;;;;;;9.89;91.45;99480.31;5113655;28;20177;-71
2023/03/31 04:30:57;;;;;;;5.20;3.57;;;;;;;9.91;91.56;99476.53;5113631;28;20743;-71
2023/03/31 04:33:24;;;;;;;8.43;3.20;;;;;;;9.94;91.58;99503.00;5113588;28;20209;-71
2023/03/31 04:35:51;;;;;;;8.47;3.33;;;;;;;9.98;91.24;99483.03;5117585;28;20173;-73
2023/03/31 04:38:20;;;;;;;9.00;4.47;;;;;;;9.92;90.94;99491.59;5117888;28;20192;-72
2023/03/31 04:40:48;;;;;;;8.23;3.03;;;;;;;9.92;91.14;99462.16;5117680;28;20272;-72
2023/03/31 04:43:16;;;;;;;6.00;3.90;;;;;;;9.98;90.86;99455.41;5117519;28;20215;-71
2023/03/31 04:45:44;;;;;;;2.93;2.70;;;;;;;9.97;90.47;99459.09;5117487;28;20188;-71
2023/03/31 04:48:11;;;;;;;3.93;2.87;;;;;;;9.91;90.34;99443.56;5118123;28;20205;-71
2023/03/31 04:50:37;;;;;;;5.90;3.07;;;;;;;9.95;90.59;99434.31;5117526;28;20755;-71
2023/03/31 04:53:04;;;;;;;6.93;3.87;;;;;;;9.87;91.02;99410.94;5117514;28;20212;-71
2023/03/31 04:55:32;;;;;;;3.30;3.27;;;;;;;9.93;90.59;99428.25;5117687;28;20272;-71
2023/03/31 04:57:58;;;;;;;5.63;2.70;;;;;;;9.93;90.78;99426.41;5117353;28;20185;-71
2023/03/31 05:00:25;;;;;;;5.13;3.17;;;;;;;9.91;90.31;99428.41;5117344;28;20681;-71
2023/03/31 05:02:51;;;;;;;3.97;2.93;;;;;;;9.97;90.27;99413.63;5117801;28;20642;-71
2023/03/31 05:05:18;;;;;;;6.73;3.17;;;;;;;10.05;89.77;99413.75;5117466;28;20200;-71
2023/03/31 05:07:45;;;;;;;3.57;2.47;;;;;;;9.94;89.68;99404.06;5117661;28;20189;-72
2023/03/31 05:10:12;;;;;;;2.80;2.70;;;;;;;9.96;88.99;99385.16;5117187;28;20169;-71
2023/03/31 05:12:38;;;;;;;6.93;2.50;;;;;;;10.01;88.85;99383.78;5117022;28;20197;-71
2023/03/31 05:15:06;;;;;;;4.67;2.20;;;;;;;9.97;88.53;99378.84;5117013;28;20273;-71
2023/03/31 05:17:34;;;;;;;2.67;2.47;;;;;;;9.95;88.49;99356.75;5117197;28;20189;-71
2023/03/31 05:20:04;;;;;;;4.70;2.77;;;;;;;9.85;89.17;99350.56;5117022;28;20185;-71
2023/03/31 05:22:34;;;;;;;8.40;2.63;;;;;;;9.85;89.18;99339.88;5117216;28;20174;-72
2023/03/31 05:25:01;;;;;;;6.13;2.47;;;;;;;9.80;89.55;99333.09;5116872;28;20187;-71
2023/03/31 05:27:28;;;;;;;2.77;2.57;;;;;;;9.77;89.42;99330.72;5115846;28;20295;-72
2023/03/31 05:29:54;;;;;;;4.33;3.40;;;;;;;9.77;89.29;99337.88;5115816;28;20189;-72
2023/03/31 05:32:21;;;;;;;3.70;2.60;;;;;;;9.76;89.64;99328.16;5115402;28;20189;-72
2023/03/31 05:34:48;;;;;;;3.70;3.30;;;;;;;9.79;89.21;99330.56;5115404;28;20699;-73
2023/03/31 05:37:19;;;;;;;7.13;2.50;;;;;;;9.74;88.93;99314.94;5098061;28;20185;-72
2023/03/31 05:39:45;;;;;;;4.30;2.70;;;;;;;9.73;88.96;99320.44;5115297;28;20178;-72
2023/03/31 05:42:11;;;;;;;3.33;3.03;;;;;;;9.79;89.00;99322.53;5115588;28;20181;-72
2023/03/31 05:44:38;;;;;;;3.07;2.90;;;;;;;9.76;88.67;99310.28;5114859;28;20205;-71
2023/03/31 05:47:04;;;;;;;3.83;3.53;;;;;;;9.75;88.96;99307.78;5115167;28;20704;-71
2023/03/31 05:49:31;;;;;;;2.70;2.60;;;;;;;9.80;88.59;99308.19;5115205;28;20185;-72
2023/03/31 05:51:58;;;;;;;3.10;2.90;;;;;;;9.80;88.56;99293.00;5115175;28;20553;-72
2023/03/31 05:54:25;;;;;;;2.57;2.37;;;;;;;9.82;88.25;99286.63;5115388;28;20208;-73
2023/03/31 05:56:51;;;;;;;4.87;2.87;;;;;;;9.83;88.30;99280.31;5115712;28;20181;-73
2023/03/31 05:59:18;;;;;;;8.13;3.43;;;;;;;9.83;88.35;99278.50;5115087;28;20246;-73
2023/03/31 06:01:46;;;;;;;3.17;2.97;;;;;;;9.87;87.85;99279.91;5115486;28;20208;-72
2023/03/31 06:04:12;;;;;;;4.17;2.97;;;;;;;9.91;87.50;99273.28;5114980;28;20209;-72
2023/03/31 06:06:38;;;;;;;3.23;3.13;;;;;;;9.94;87.39;99277.50;5115412;28;20205;-72
2023/03/31 06:09:05;;;;;;;3.93;2.60;;;;;;;9.96;87.41;99273.72;5115485;28;20216;-72
2023/03/31 06:11:31;;;;;;;3.70;2.77;;;;;;;9.99;86.75;99267.22;5114847;28;20196;-72
2023/03/31 06:13:58;;;;;;;2.73;2.70;;;;;;;10.04;87.19;99272.16;5114760;28;20209;-72
2023/03/31 06:16:25;;;;;;;2.80;2.60;;;;;;;9.99;86.49;99265.38;5114721;28;20192;-72
2023/03/31 06:18:52;;;;;;;3.57;2.47;;;;;;;10.05;86.52;99255.94;5115043;28;20651;-72
2023/03/31 06:21:20;;;;;;;3.90;3.00;;;;;;;10.04;86.84;99256.09;5115232;28;20273;-72
2023/03/31 06:23:47;;;;;;;2.30;2.13;;;;;;;10.09;86.53;99245.81;5114888;28;20554;-72
2023/03/31 06:26:16;;;;;;;2.40;2.27;;;;;;;10.09;86.67;99252.00;5115162;28;20276;-72
2023/03/31 06:28:44;;;;;;;3.23;2.63;;;;;;;10.06;86.25;99254.13;5115608;28;20166;-72
2023/03/31 06:31:13;;;;;;;6.67;3.17;;;;;;;10.10;86.17;99251.00;5115562;28;20272;-72
2023/03/31 06:33:41;;;;;;;2.60;2.40;;;;;;;10.09;85.42;99248.50;5115412;28;20232;-72
2023/03/31 06:36:08;;;;;;;3.60;2.40;;;;;;;10.09;85.69;99243.97;5115534;28;20271;-72
2023/03/31 06:38:37;;;;;;;1.83;1.80;;;;;;;10.12;85.63;99245.50;5116019;28;20213;-72
2023/03/31 06:41:05;;;;;;;1.90;1.80;;;;;;;10.12;85.38;99250.88;5115363;28;20189;-72
2023/03/31 06:43:32;;;;;;;2.37;2.13;;;;;;;10.06;85.97;99246.94;5115284;28;20204;-72
2023/03/31 06:45:58;;;;;;;2.53;2.43;;;;;;;10.09;86.00;99243.13;5097258;28;20185;-72
2023/03/31 06:48:25;;;;;;;2.70;2.50;;;;;;;10.02;86.38;99241.03;5115149;28;20213;-73
2023/03/31 06:50:53;;;;;;;3.73;2.60;;;;;;;9.99;86.81;99240.47;5115183;28;20189;-73
2023/03/31 06:53:23;;;;;;;4.03;2.50;;;;;;;9.97;87.28;99245.13;5115390;28;20208;-71
2023/03/31 06:55:50;;;;;;;3.17;2.87;;;;;;;10.02;87.34;99237.50;5115399;28;20213;-72
2023/03/31 06:58:16;;;;;;;12.63;3.43;;;;;;;9.92;88.02;99239.38;5114221;28;20186;-72
2023/03/31 07:00:44;;;;;;;3.90;3.80;;;;;;;9.87;88.47;99245.16;5114911;28;20189;-73
2023/03/31 07:03:11;;;;;;;4.00;2.77;;;;;;;9.82;88.76;99241.19;5115157;28;20241;-72
2023/03/31 07:05:38;;;;;;;4.63;2.10;;;;;;;9.79;89.43;99236.97;5115151;28;20185;-72
2023/03/31 07:08:05;;;;;;;5.50;2.37;;;;;;;9.72;90.00;99241.19;5115038;28;20670;-72
2023/03/31 07:10:31;;;;;;;7.23;2.20;;;;;;;9.68;89.84;99239.81;5114814;28;20647;-72
2023/03/31 07:12:58;;;;;;;6.23;2.73;;;;;;;9.66;90.08;99236.44;5115164;28;20207;-72
2023/03/31 07:15:27;;;;;;;2.40;2.03;;;;;;;9.70;90.34;99235.19;5114742;28;20650;-74
2023/03/31 07:18:00;;;;;;;2.20;2.20;;;;;;;9.72;89.90;99238.53;5114972;28;20177;-73
2023/03/31 07:20:29;;;;;;;2.40;2.20;;;;;;;9.68;90.52;99229.13;5114716;28;20260;-73
2023/03/31 07:22:55;;;;;;;4.23;2.60;;;;;;;9.67;90.65;99230.94;5114470;28;20704;-73
2023/03/31 07:25:22;;;;;;;2.83;2.60;;;;;;;9.68;90.51;99229.97;5114796;28;20191;-73
2023/03/31 07:27:48;;;;;;;2.97;2.50;;;;;;;9.63;90.75;99226.03;5114614;28;20213;-73
2023/03/31 07:30:18;;;;;;;3.27;2.10;;;;;;;9.58;90.87;99221.09;5114737;28;20547;-73
2023/03/31 07:32:49;;;;;;;5.30;2.43;;;;;;;9.54;90.93;99217.03;5114328;28;20225;-72
2023/03/31 07:35:17;;;;;;;3.83;2.73;;;;;;;9.58;90.92;99223.78;5114536;28;20185;-72
2023/03/31 07:37:46;;;;;;;4.10;3.17;;;;;;;9.57;91.23;99219.41;5114481;28;20185;-73
2023/03/31 07:40:14;;;;;;;6.00;3.10;;;;;;;9.58;91.38;99215.75;5114539;28;20272;-73
2023/03/31 07:42:42;;;;;;;7.40;2.67;;;;;;;9.64;91.41;99214.34;5114411;28;20255;-72
2023/03/31 07:45:09;;;;;;;2.37;2.37;;;;;;;9.64;91.67;99217.84;5114258;28;20677;-73
2023/03/31 07:47:35;;;;;;;2.40;2.30;;;;;;;9.57;91.56;99220.25;5114071;28;20211;-73
2023/03/31 07:50:02;;;;;;;4.67;3.40;;;;;;;9.61;91.27;99220.81;5114126;28;20193;-73
2023/03/31 07:52:28;;;;;;;2.83;2.40;;;;;;;9.57;91.74;99222.06;5114566;28;20191;-73
2023/03/31 07:54:55;;;;;;;1.90;1.80;;;;;;;9.59;91.76;99225.47;5095770;28;20232;-72
2023/03/31 07:57:21;;;;;;;2.90;2.70;;;;;;;9.60;91.67;99221.81;5114348;28;20188;-72
2023/03/31 07:59:48;;;;;;;2.57;2.37;;;;;;;9.55;92.07;99218.69;5114218;28;20189;-72
2023/03/31 08:02:16;;;;;;;5.73;2.07;;;;;;;9.55;92.23;99221.38;5113952;28;20204;-72
2023/03/31 08:04:43;;;;;;;3.80;3.30;;;;;;;9.61;92.70;99217.31;5114021;28;20213;-72
2023/03/31 08:07:12;;;;;;;2.90;2.70;;;;;;;9.56;92.50;99215.91;5114024;28;20304;-72
2023/03/31 08:09:39;;;;;;;3.30;2.27;;;;;;;9.52;92.59;99219.81;5113719;28;20189;-73
2023/03/31 08:12:06;;;;;;;4.97;3.27;;;;;;;9.55;92.62;99221.38;5113793;28;20199;-73
2023/03/31 08:14:32;;;;;;;2.50;2.50;;;;;;;9.61;92.34;99207.44;5114887;28;20570;-72
2023/03/31 08:17:06;;;;;;;3.27;2.93;;;;;;;9.57;92.62;99203.38;5114031;28;20240;-72
2023/03/31 08:19:33;;;;;;;7.10;3.50;;;;;;;9.51;92.71;99188.75;5113993;28;20188;-73
2023/03/31 08:21:59;;;;;;;3.97;2.67;;;;;;;9.50;93.50;99187.06;5114125;28;20195;-73
2023/03/31 08:24:26;;;;;;;4.80;2.50;;;;;;;9.51;93.60;99175.41;5113655;28;20201;-72
2023/03/31 08:26:52;;;;;;;4.70;4.47;;;;;;;9.54;93.12;99183.13;5113664;28;20231;-72
2023/03/31 08:29:18;;;;;;;2.47;2.47;;;;;;;9.56;92.83;99166.94;5114190;28;20635;-72
2023/03/31 08:31:45;;;;;;;3.47;2.70;;;;;;;9.56;92.68;99172.28;5113701;28;20195;-72
2023/03/31 08:34:11;;;;;;;2.83;2.63;;;;;;;9.63;92.61;99167.22;5113516;28;20205;-74
2023/03/31 08:36:38;;;;;;;3.10;3.00;;;;;;;9.68;92.55;99164.97;5114099;28;20178;-72
2023/03/31 08:39:05;;;;;;;3.53;3.40;;;;;;;9.70;92.38;99166.50;5113835;28;20181;-72
2023/03/31 08:41:51;;;;;;;3.97;2.60;;;;;;;9.70;92.65;99163.84;5113524;28;20197;-72
2023/03/31 08:44:28;;;;;;;4.70;3.43;;;;;;;9.83;92.00;99168.03;5113656;28;20216;-72
2023/03/31 08:46:58;;;;;;;6.27;3.33;;;;;;;9.76;91.56;99159.72;5113667;28;20670;-72
2023/03/31 08:49:25;;;;;;;2.23;2.23;;;;;;;9.85;91.61;99155.38;5113748;28;20524;-72
2023/03/31 08:51:58;;;;;;;2.17;2.03;;;;;;;9.91;91.17;99150.28;5113668;28;20224;-72
2023/03/31 08:54:32;;;;;;;2.37;2.27;;;;;;;9.94;90.88;99160.69;5113694;28;20574;-72
2023/03/31 08:57:00;;;;;;;4.90;2.53;;;;;;;10.01;90.48;99160.94;5113431;28;20641;-72
2023/03/31 08:59:31;;;;;;;3.00;2.90;;;;;;;10.09;91.08;99153.03;5113296;28;20194;-72
2023/03/31 09:02:01;;;;;;;3.17;2.97;;;;;;;10.14;90.29;99152.59;5113653;28;20199;-72
2023/03/31 09:04:57;;;;;;;2.97;2.77;;;;;;;10.14;90.16;99156.09;5114096;28;20219;-72
2023/03/31 09:07:52;;;;;;;4.97;2.90;;;;;;;10.20;89.81;99147.50;5113781;28;20198;-72
2023/03/31 09:10:34;;;;;;;3.20;3.00;;;;;;;10.22;90.16;99139.31;5113572;28;20180;-72
2023/03/31 09:13:03;;;;;;;3.43;3.23;;;;;;;10.22;90.43;99140.19;5113175;28;20201;-72
2023/03/31 09:15:42;;;;;;;3.83;3.73;;;;;;;10.26;90.44;99142.56;5113561;28;20683;-72
2023/03/31 09:18:35;;;;;;;2.97;2.87;;;;;;;10.21;90.06;99140.31;5113215;28;20619;-72
2023/03/31 09:21:17;;;;;;;7.00;6.50;;;;;;;10.29;89.80;99136.94;5109419;28;20207;-72
2023/03/31 09:23:58;;;;;;;4.70;4.60;;;;;;;10.33;89.79;99141.00;5117044;28;20215;-72
2023/03/31 09:26:33;;;;;;;3.67;3.37;;;;;;;10.32;89.89;99129.47;5117092;28;20227;-72
2023/03/31 09:29:03;;;;;;;3.23;3.03;;;;;;;10.30;90.46;99126.09;5117243;28;20192;-72
2023/03/31 09:31:30;;;;;;;3.73;3.57;;;;;;;10.32;90.38;99133.94;5117607;28;20181;-72
2023/03/31 09:34:00;;;;;;;3.17;3.17;;;;;;;10.40;90.51;99128.72;5116755;28;20708;-72
2023/03/31 09:36:27;;;;;;;2.87;2.87;;;;;;;10.39;90.10;99124.34;5117265;28;20272;-72
2023/03/31 09:38:54;;;;;;;3.33;3.23;;;;;;;10.40;90.34;99120.69;5116900;28;20189;-72
2023/03/31 09:41:20;;;;;;;7.10;4.13;;;;;;;10.44;90.37;99106.03;5116551;28;20250;-72
2023/03/31 09:43:48;;;;;;;4.40;4.07;;;;;;;10.45;90.99;99099.66;5116457;28;20208;-72
2023/03/31 09:46:32;;;;;;;3.90;3.70;;;;;;;10.49;90.98;99102.91;5116434;28;20260;-72
2023/03/31 09:49:05;;;;;;;7.23;3.73;;;;;;;10.53;91.19;99089.03;5116571;28;20232;-72
2023/03/31 09:51:36;;;;;;;3.87;3.57;;;;;;;10.53;90.82;99085.53;5117018;28;20180;-72
2023/03/31 09:54:24;;;;;;;3.17;3.07;;;;;;;10.57;91.04;99092.28;5116362;28;20288;-72
2023/03/31 09:56:54;;;;;;;6.23;2.87;;;;;;;10.55;90.87;99075.50;5116627;28;20600;-72
2023/03/31 09:59:28;;;;;;;2.27;2.27;;;;;;;10.57;91.50;99068.19;5116261;28;20181;-72
2023/03/31 10:01:59;;;;;;;3.63;2.90;;;;;;;10.62;90.96;99074.75;5098495;28;20260;-72
2023/03/31 10:04:29;;;;;;;5.03;3.67;;;;;;;10.68;91.28;99070.66;5116281;28;20624;-72
2023/03/31 10:06:57;;;;;;;3.73;3.50;;;;;;;10.69;92.04;99069.63;5116846;28;20585;-72
2023/03/31 10:09:29;;;;;;;3.90;2.80;;;;;;;10.73;91.55;99059.47;5116284;28;20234;-72
2023/03/31 10:12:01;;;;;;;3.17;2.97;;;;;;;10.83;91.48;99062.91;5116059;28;20169;-72
2023/03/31 10:14:45;;;;;;;2.87;2.73;;;;;;;10.92;91.27;99053.09;5115899;28;20637;-72
2023/03/31 10:17:18;;;;;;;5.10;2.87;;;;;;;11.03;91.33;99050.19;5115822;28;20170;-72
2023/03/31 10:19:57;;;;;;;2.80;2.60;;;;;;;11.12;91.03;99045.75;5115834;28;20185;-72
2023/03/31 10:22:31;;;;;;;2.90;2.67;;;;;;;11.21;91.58;99034.09;5116222;28;20252;-72
2023/03/31 10:25:23;;;;;;;2.80;2.60;;;;;;;11.42;91.12;99031.03;5116014;28;20208;-72
2023/03/31 10:27:54;;;;;;;6.90;3.43;;;;;;;11.54;90.75;99037.84;5115855;28;20201;-72
2023/03/31 10:30:24;;;;;;;6.13;4.13;;;;;;;11.59;89.59;99045.38;5115882;28;20226;-72
2023/03/31 10:32:51;;;;;;;9.33;5.63;;;;;;;11.55;88.84;99047.56;5114367;28;20201;-72
2023/03/31 10:35:31;;;;;;;11.87;8.47;;;;;;;11.52;89.36;99063.09;5116028;28;20191;-72
2023/03/31 10:38:03;;;;;;;7.87;3.30;;;;;;;11.41;88.96;99073.09;5116022;28;20309;-73
2023/03/31 10:40:33;;;;;;;7.40;3.57;;;;;;;11.38;89.19;99059.19;5115634;28;20172;-73
2023/03/31 10:43:11;;;;;;;12.87;3.87;;;;;;;11.38;89.78;99067.22;5115274;28;20213;-72
2023/03/31 10:45:43;;;;;;;6.37;3.20;;;;;;;11.36;87.21;99051.28;5115613;28;20272;-73
2023/03/31 10:48:38;;;;;;;8.90;3.83;;;;;;;11.31;86.64;99042.88;5115726;28;20204;-72
2023/03/31 10:51:25;;;;;;;3.70;3.40;;;;;;;11.42;87.04;99034.59;5113761;28;20209;-72
2023/03/31 10:53:54;;;;;;;8.97;3.30;;;;;;;11.45;85.94;99034.25;5115377;28;20212;-72
2023/03/31 10:56:38;;;;;;;9.77;3.27;;;;;;;11.40;85.19;99033.06;5115083;28;20276;-72
2023/03/31 10:59:42;;;;;;;9.57;3.73;;;;;;;11.45;86.06;99023.53;5115310;28;20197;-73
2023/03/31 11:02:17;;;;;;;9.07;3.57;;;;;;;11.57;83.81;99029.47;5114992;28;20214;-73
2023/03/31 11:05:14;;;;;;;5.53;3.80;;;;;;;11.75;83.17;99026.72;5114960;28;20207;-72
2023/03/31 11:07:43;;;;;;;8.17;3.57;;;;;;;11.96;83.84;99025.50;5114956;28;20560;-72
2023/03/31 11:10:43;;;;;;;14.70;3.67;;;;;;;11.95;83.52;99016.63;5115213;28;20212;-73
2023/03/31 11:13:21;;;;;;;4.80;3.33;;;;;;;12.10;84.25;99024.91;5114768;28;20201;-72
2023/03/31 11:16:03;;;;;;;14.87;4.10;;;;;;;12.09;84.34;99028.56;5115146;28;20259;-73
2023/03/31 11:18:48;;;;;;;13.57;3.37;;;;;;;12.02;82.97;99027.53;5115066;28;20180;-72
2023/03/31 11:21:33;;;;;;;12.23;3.50;;;;;;;11.98;82.80;99044.97;5115107;28;20170;-72
2023/03/31 11:24:22;;;;;;;10.23;3.27;;;;;;;11.66;80.70;99058.03;5114709;28;20239;-72
2023/03/31 11:27:15;;;;;;;5.40;2.80;;;;;;;11.52;83.28;99052.38;5114848;28;20565;-72
2023/03/31 11:29:52;;;;;;;10.37;3.37;;;;;;;11.49;83.34;99042.81;5111772;28;20204;-72
2023/03/31 11:32:32;;;;;;;6.27;3.43;;;;;;;11.47;83.67;99050.19;5114771;28;20177;-72
2023/03/31 11:35:15;;;;;;;6.13;2.23;;;;;;;11.56;84.33;99041.19;5114474;28;20595;-72
2023/03/31 11:38:17;;;;;;;4.13;3.10;;;;;;;11.68;84.71;99039.06;5114548;28;20177;-72
2023/03/31 11:41:03;;;;;;;6.57;2.70;;;;;;;11.76;81.93;99032.94;5089694;28;20232;-72
2023/03/31 11:43:40;;;;;;;7.13;3.13;;;;;;;11.94;84.41;99031.03;5114055;28;20254;-71
2023/03/31 11:46:22;;;;;;;8.73;2.70;;;;;;;12.10;84.29;99031.09;5114608;28;20185;-72
2023/03/31 11:49:00;;;;;;;5.23;3.27;;;;;;;12.18;81.76;99037.50;5114771;28;20193;-72
2023/03/31 11:51:47;;;;;;;9.43;2.87;;;;;;;12.29;81.18;99035.34;5114750;28;20185;-72
2023/03/31 11:54:23;;;;;;;4.57;2.63;;;;;;;12.37;77.39;99044.44;5114386;28;20262;-72
2023/03/31 11:56:51;;;;;;;4.47;2.07;;;;;;;12.49;76.41;99038.59;5114350;28;20211;-72
2023/03/31 11:59:20;;;;;;;5.90;2.53;;;;;;;12.53;77.69;99028.38;5113992;28;20185;-72
2023/03/31 12:02:14;;;;;;;3.60;2.10;;;;;;;12.48;74.78;99031.53;5095938;28;20195;-72